Time;durP1;ratioP1;P1;durP2;ratioP2;P2;SDS_P1;SDS_P2;PMS_P1;PMS_P2;Temp;Humidity;BMP_temperature;BMP_pressure;BME280_temperature;BME280_humidity;BME280_pressure;Samples;Min_cycle;Max_cycle;Signal;HPM_P1;HPM_P2
2021/05/09 00:00:26;;;;;;;2.45;1.35;;;;;;;7.93;100.00;99404.07;1803182;78;20906;-63
2021/05/09 00:02:57;;;;;;;2.12;1.77;;;;;;;7.93;100.00;99405.38;1803212;78;20914;-63
2021/05/09 00:05:29;;;;;;;1.75;1.65;;;;;;;7.90;100.00;99406.67;1803290;78;22544;-63
2021/05/09 00:08:00;;;;;;;2.30;1.47;;;;;;;7.88;100.00;99407.09;1802952;78;20981;-63
2021/05/09 00:10:31;;;;;;;2.75;1.87;;;;;;;7.88;100.00;99409.72;1803130;78;21013;-63
2021/05/09 00:13:03;;;;;;;1.83;1.50;;;;;;;7.88;100.00;99414.53;1803219;78;20911;-62
2021/05/09 00:15:35;;;;;;;2.50;1.80;;;;;;;7.87;100.00;99417.15;1803056;78;22129;-63
2021/05/09 00:18:10;;;;;;;2.30;1.60;;;;;;;7.85;100.00;99414.94;1803168;78;21197;-63
2021/05/09 00:20:47;;;;;;;2.05;1.75;;;;;;;7.82;100.00;99414.91;1802246;78;21013;-63
2021/05/09 00:23:18;;;;;;;4.50;2.00;;;;;;;7.81;100.00;99414.03;1803156;78;21485;-64
2021/05/09 00:25:49;;;;;;;1.85;1.60;;;;;;;7.81;100.00;99421.91;1803035;78;20934;-63
2021/05/09 00:28:23;;;;;;;1.57;1.30;;;;;;;7.83;100.00;99424.55;1803010;78;20950;-63
2021/05/09 00:30:54;;;;;;;5.20;1.70;;;;;;;7.85;100.00;99422.82;1803089;79;21436;-63
2021/05/09 00:33:24;;;;;;;3.55;1.80;;;;;;;7.88;100.00;99429.42;1802849;78;20934;-63
2021/05/09 00:35:56;;;;;;;;;;;;;;;7.89;100.00;99434.68;1805680;78;20962;-63
2021/05/09 00:38:30;;;;;;;1.62;1.50;;;;;;;7.86;100.00;99430.72;1802960;78;20220;-63
2021/05/09 00:41:00;;;;;;;2.92;1.67;;;;;;;7.84;100.00;99430.25;1803034;78;21587;-62
2021/05/09 00:43:33;;;;;;;4.08;1.82;;;;;;;7.82;100.00;99430.24;1803028;78;20950;-62
2021/05/09 00:46:08;;;;;;;2.10;1.80;;;;;;;7.79;100.00;99430.22;1802354;78;21030;-63
2021/05/09 00:48:40;;;;;;;1.90;1.50;;;;;;;7.77;100.00;99436.31;1802505;78;21002;-62
2021/05/09 00:51:20;;;;;;;2.55;1.60;;;;;;;7.74;100.00;99434.98;1802445;78;20918;-62
2021/05/09 00:53:54;;;;;;;2.02;1.70;;;;;;;7.69;100.00;99437.98;1802300;78;21592;-62
2021/05/09 00:56:26;;;;;;;2.08;1.87;;;;;;;7.68;100.00;99446.73;1802443;78;21188;-62
2021/05/09 00:59:03;;;;;;;1.98;1.60;;;;;;;7.65;100.00;99438.83;1802411;79;21010;-63
2021/05/09 01:01:41;;;;;;;1.85;1.67;;;;;;;7.65;100.00;99446.70;1802539;78;20946;-63
2021/05/09 01:04:15;;;;;;;2.17;1.80;;;;;;;7.64;100.00;99447.13;1802493;79;20923;-63
2021/05/09 01:06:48;;;;;;;2.15;1.72;;;;;;;7.61;100.00;99451.47;1802437;78;20907;-62
2021/05/09 01:09:19;;;;;;;2.67;1.70;;;;;;;7.62;100.00;99450.61;1802643;78;21338;-62
2021/05/09 01:11:51;;;;;;;1.70;1.60;;;;;;;7.59;100.00;99448.83;1802540;78;21037;-63
2021/05/09 01:14:23;;;;;;;3.10;1.60;;;;;;;7.55;100.00;99453.56;1802491;78;21006;-62
2021/05/09 01:16:53;;;;;;;2.02;1.67;;;;;;;7.52;100.00;99446.54;1802219;78;20871;-62
2021/05/09 01:19:24;;;;;;;2.85;2.08;;;;;;;7.49;100.00;99449.13;1802429;78;20922;-63
2021/05/09 01:21:58;;;;;;;2.37;2.05;;;;;;;7.46;100.00;99450.41;1802369;79;21476;-62
2021/05/09 01:24:31;;;;;;;1.80;1.55;;;;;;;7.43;100.00;99448.19;1802318;78;20974;-62
2021/05/09 01:27:05;;;;;;;2.00;1.72;;;;;;;7.43;100.00;99457.38;1802390;78;20919;-63
2021/05/09 01:29:37;;;;;;;2.47;1.80;;;;;;;7.40;100.00;99453.40;1802479;78;21046;-62
2021/05/09 01:32:14;;;;;;;3.08;1.70;;;;;;;7.38;100.00;99462.56;1802390;78;21029;-62
2021/05/09 01:34:47;;;;;;;2.27;2.02;;;;;;;7.35;100.00;99462.53;1802353;77;22279;-63
2021/05/09 01:37:17;;;;;;;2.00;1.62;;;;;;;7.34;100.00;99458.58;1771430;78;21615;-62
2021/05/09 01:39:49;;;;;;;1.80;1.57;;;;;;;7.32;100.00;99457.25;1802278;78;20994;-62
2021/05/09 01:42:19;;;;;;;2.30;1.80;;;;;;;7.29;100.00;99461.16;1802167;78;20978;-62
2021/05/09 01:44:54;;;;;;;1.98;1.72;;;;;;;7.26;100.00;99468.55;1802330;78;21038;-62
2021/05/09 01:47:25;;;;;;;2.52;1.70;;;;;;;7.25;100.00;99472.05;1802266;78;21361;-62
2021/05/09 01:49:56;;;;;;;2.65;1.82;;;;;;;7.24;100.00;99471.59;1771532;78;20971;-62
2021/05/09 01:52:28;;;;;;;1.77;1.60;;;;;;;7.23;100.00;99476.39;1802402;78;21060;-62
2021/05/09 01:55:02;;;;;;;2.58;2.25;;;;;;;7.22;100.00;99481.63;1802420;78;20922;-62
2021/05/09 01:57:33;;;;;;;2.27;1.75;;;;;;;7.21;100.00;99480.73;1800717;78;20914;-64
2021/05/09 02:00:15;;;;;;;1.67;1.57;;;;;;;7.19;100.00;99482.47;1802306;79;21005;-62
2021/05/09 02:02:50;;;;;;;3.85;2.00;;;;;;;7.19;100.00;99487.70;1802272;78;20982;-62
2021/05/09 02:05:25;;;;;;;1.98;1.70;;;;;;;7.19;100.00;99495.58;1802230;79;21014;-61
2021/05/09 02:07:57;;;;;;;2.52;1.65;;;;;;;7.19;100.00;99493.39;1802370;78;21556;-62
2021/05/09 02:10:30;;;;;;;4.50;2.08;;;;;;;7.19;100.00;99494.70;1802570;78;21069;-61
2021/05/09 02:13:02;;;;;;;2.15;1.80;;;;;;;7.19;100.00;99494.27;1802381;78;22295;-62
2021/05/09 02:15:36;;;;;;;2.45;1.87;;;;;;;7.17;100.00;99501.67;1801420;78;20931;-62
2021/05/09 02:18:11;;;;;;;2.77;1.87;;;;;;;7.15;100.00;99503.39;1802339;78;21041;-61
2021/05/09 02:20:43;;;;;;;2.17;1.98;;;;;;;7.13;100.00;99504.69;1802349;78;20926;-62
2021/05/09 02:23:15;;;;;;;2.80;1.98;;;;;;;7.07;100.00;99507.19;1802386;78;20922;-62
2021/05/09 02:25:46;;;;;;;2.58;2.10;;;;;;;7.05;100.00;99514.16;1802283;78;21354;-62
2021/05/09 02:28:18;;;;;;;3.58;1.82;;;;;;;7.06;100.00;99515.05;1802325;78;21618;-61
2021/05/09 02:30:50;;;;;;;2.90;1.90;;;;;;;7.04;100.00;99518.95;1802428;78;21559;-61
2021/05/09 02:33:22;;;;;;;3.15;1.90;;;;;;;7.06;100.00;99520.29;1801924;78;21953;-62
2021/05/09 02:35:53;;;;;;;3.30;1.85;;;;;;;7.07;100.00;99529.92;1797278;78;20922;-62
2021/05/09 02:38:26;;;;;;;3.00;2.10;;;;;;;7.07;100.00;99530.80;1797353;78;21131;-61
2021/05/09 02:40:57;;;;;;;2.85;1.80;;;;;;;7.09;100.00;99534.33;1797110;78;21171;-62
2021/05/09 02:43:29;;;;;;;3.37;2.10;;;;;;;7.09;100.00;99536.95;1797228;78;21028;-62
2021/05/09 02:46:00;;;;;;;2.85;2.10;;;;;;;7.11;100.00;99544.88;1797171;78;21036;-62
2021/05/09 02:48:34;;;;;;;2.47;2.00;;;;;;;7.11;100.00;99544.88;1796595;78;21076;-62
2021/05/09 02:51:04;;;;;;;1.98;1.75;;;;;;;7.11;100.00;99552.75;1779393;79;21459;-61
2021/05/09 02:53:36;;;;;;;2.20;1.80;;;;;;;7.12;100.00;99556.70;1797208;78;21092;-61
2021/05/09 02:56:07;;;;;;;2.85;2.05;;;;;;;7.13;100.00;99565.02;1797206;78;20933;-63
2021/05/09 02:58:38;;;;;;;3.12;2.10;;;;;;;7.14;100.00;99569.41;1779533;79;20931;-65
2021/05/09 03:01:08;;;;;;;3.02;2.20;;;;;;;7.15;100.00;99571.17;1797242;78;20930;-65
2021/05/09 03:03:38;;;;;;;2.12;1.92;;;;;;;7.16;100.00;99578.61;1797256;78;22102;-64
2021/05/09 03:06:13;;;;;;;3.37;2.12;;;;;;;7.16;100.00;99580.80;1779444;78;20942;-64
2021/05/09 03:08:43;;;;;;;2.20;2.00;;;;;;;7.18;100.00;99584.77;1797122;78;21048;-64
2021/05/09 03:11:15;;;;;;;1.62;1.52;;;;;;;7.16;100.00;99590.42;1797374;78;20882;-64
2021/05/09 03:13:45;;;;;;;2.35;2.00;;;;;;;7.17;100.00;99592.19;1779479;78;20945;-64
2021/05/09 03:16:16;;;;;;;2.90;1.93;;;;;;;7.19;100.00;99599.22;1797545;78;22273;-62
2021/05/09 03:18:47;;;;;;;3.02;1.85;;;;;;;7.22;100.00;99599.69;1797133;78;20933;-63
2021/05/09 03:21:20;;;;;;;1.82;1.60;;;;;;;7.23;100.00;99606.27;1797160;78;21015;-64
2021/05/09 03:23:49;;;;;;;3.13;1.83;;;;;;;7.23;100.00;99608.89;1797397;78;20998;-63
2021/05/09 03:26:20;;;;;;;2.00;1.80;;;;;;;7.25;100.00;99608.48;1797207;78;20981;-63
2021/05/09 03:28:50;;;;;;;3.40;1.87;;;;;;;7.26;100.00;99608.94;1797282;78;21378;-62
2021/05/09 03:31:20;;;;;;;2.20;1.98;;;;;;;7.25;100.00;99609.80;1797199;78;21551;-62
2021/05/09 03:33:51;;;;;;;2.17;1.97;;;;;;;7.27;100.00;99611.13;1797347;77;21325;-62
2021/05/09 03:36:21;;;;;;;2.40;2.15;;;;;;;7.30;100.00;99616.42;1797203;78;20982;-62
2021/05/09 03:38:51;;;;;;;3.37;2.50;;;;;;;7.32;100.00;99622.58;1797234;78;21575;-63
2021/05/09 03:41:22;;;;;;;2.37;2.00;;;;;;;7.35;100.00;99619.99;1797153;78;21308;-62
2021/05/09 03:43:52;;;;;;;2.15;1.92;;;;;;;7.39;100.00;99627.48;1797056;79;20930;-63
2021/05/09 03:46:22;;;;;;;2.17;1.75;;;;;;;7.40;100.00;99628.81;1797082;78;21032;-62
2021/05/09 03:48:51;;;;;;;3.02;2.20;;;;;;;7.42;100.00;99626.21;1797097;78;20949;-63
2021/05/09 03:51:22;;;;;;;2.55;2.20;;;;;;;7.42;100.00;99634.08;1797238;78;20913;-62
2021/05/09 03:53:53;;;;;;;3.55;2.27;;;;;;;7.44;100.00;99633.67;1797094;78;21167;-63
2021/05/09 03:56:23;;;;;;;3.40;2.33;;;;;;;7.48;100.00;99637.67;1797036;78;21076;-63
2021/05/09 03:58:54;;;;;;;3.20;2.33;;;;;;;7.52;100.00;99635.55;1797237;78;21465;-63
2021/05/09 04:01:24;;;;;;;2.77;2.10;;;;;;;7.55;100.00;99630.34;1797138;78;21448;-63
2021/05/09 04:03:54;;;;;;;2.75;2.10;;;;;;;7.58;100.00;99634.78;1797146;78;20930;-63
2021/05/09 04:06:23;;;;;;;2.40;2.20;;;;;;;7.62;100.00;99635.27;1797194;78;22287;-62
2021/05/09 04:08:53;;;;;;;2.87;2.10;;;;;;;7.67;100.00;99637.53;1796993;78;20934;-63
2021/05/09 04:11:23;;;;;;;2.77;2.02;;;;;;;7.73;100.00;99644.17;1797084;78;21049;-63
2021/05/09 04:13:54;;;;;;;4.05;2.17;;;;;;;7.75;100.00;99648.13;1797036;78;20910;-62
2021/05/09 04:16:24;;;;;;;5.72;2.77;;;;;;;7.80;100.00;99645.13;1797100;78;20922;-62
2021/05/09 04:18:53;;;;;;;5.12;2.30;;;;;;;7.85;100.00;99646.95;1797092;78;21349;-62
2021/05/09 04:21:23;;;;;;;2.90;2.52;;;;;;;7.93;100.00;99655.36;1797185;78;20945;-63
2021/05/09 04:23:53;;;;;;;3.27;1.95;;;;;;;8.00;100.00;99655.45;1779512;78;20926;-62
2021/05/09 04:26:23;;;;;;;3.12;2.12;;;;;;;8.06;100.00;99666.50;1797209;78;21492;-63
2021/05/09 04:28:53;;;;;;;2.70;2.20;;;;;;;8.11;100.00;99671.38;1797293;78;20922;-63
2021/05/09 04:31:23;;;;;;;2.35;1.98;;;;;;;8.13;100.00;99675.78;1797254;78;22196;-63
2021/05/09 04:33:54;;;;;;;2.50;2.10;;;;;;;8.15;100.00;99678.00;1797251;78;21052;-62
2021/05/09 04:36:25;;;;;;;2.92;2.05;;;;;;;8.23;100.00;99679.83;1802451;78;21065;-62
2021/05/09 04:38:55;;;;;;;3.35;2.55;;;;;;;8.30;100.00;99681.23;1802306;78;20931;-62
2021/05/09 04:41:24;;;;;;;3.17;2.75;;;;;;;8.39;100.00;99680.05;1802470;78;20922;-63
2021/05/09 04:43:54;;;;;;;2.92;2.50;;;;;;;8.49;100.00;99680.60;1802333;78;21188;-62
2021/05/09 04:46:24;;;;;;;3.65;2.77;;;;;;;8.57;100.00;99680.72;1802314;79;20930;-62
2021/05/09 04:48:54;;;;;;;4.22;2.70;;;;;;;8.62;100.00;99684.27;1802397;78;21057;-63
2021/05/09 04:51:24;;;;;;;4.53;2.00;;;;;;;8.62;100.00;99688.22;1802335;78;20934;-62
2021/05/09 04:54:01;;;;;;;4.60;2.27;;;;;;;8.66;100.00;99689.13;1802308;78;21117;-62
2021/05/09 04:56:31;;;;;;;2.62;2.00;;;;;;;8.76;100.00;99700.19;1802294;79;21591;-62
2021/05/09 04:59:01;;;;;;;3.47;2.30;;;;;;;8.85;100.00;99697.64;1802285;79;21544;-62
2021/05/09 05:01:31;;;;;;;3.22;2.25;;;;;;;8.94;100.00;99696.41;1802305;79;21544;-63
2021/05/09 05:04:01;;;;;;;2.85;2.20;;;;;;;9.01;100.00;99697.38;1802247;78;21002;-61
2021/05/09 05:06:32;;;;;;;3.17;2.30;;;;;;;9.08;100.00;99696.56;1802432;78;20967;-62
2021/05/09 05:09:03;;;;;;;2.75;2.10;;;;;;;9.10;100.00;99698.34;1802320;78;21196;-62
2021/05/09 05:11:33;;;;;;;3.08;2.12;;;;;;;9.14;100.00;99697.93;1802339;78;21077;-62
2021/05/09 05:14:04;;;;;;;2.20;2.00;;;;;;;9.21;100.00;99702.38;1802259;78;20899;-62
2021/05/09 05:16:36;;;;;;;2.87;2.30;;;;;;;9.27;100.00;99706.81;1802382;78;21061;-62
2021/05/09 05:19:06;;;;;;;3.17;2.15;;;;;;;9.28;100.00;99709.89;1802318;78;21468;-63
2021/05/09 05:21:36;;;;;;;2.42;2.10;;;;;;;9.31;100.00;99713.86;1802287;79;21176;-62
2021/05/09 05:24:08;;;;;;;4.83;2.42;;;;;;;9.39;100.00;99714.36;1802197;78;21073;-62
2021/05/09 05:26:38;;;;;;;2.95;2.65;;;;;;;9.49;100.00;99717.98;1802226;79;21029;-63
2021/05/09 05:29:08;;;;;;;2.95;2.08;;;;;;;9.55;100.00;99721.97;1802235;79;21156;-62
2021/05/09 05:31:38;;;;;;;4.87;2.55;;;;;;;9.64;100.00;99726.42;1802261;79;20986;-61
2021/05/09 05:34:08;;;;;;;2.30;1.85;;;;;;;9.66;100.00;99729.52;1802190;79;21183;-62
2021/05/09 05:36:38;;;;;;;4.33;2.33;;;;;;;9.75;100.00;99732.64;1810633;78;21192;-61
2021/05/09 05:39:08;;;;;;;4.33;2.12;;;;;;;9.82;100.00;99731.80;1810835;78;21131;-64
2021/05/09 05:41:39;;;;;;;3.70;2.30;;;;;;;9.91;100.00;99733.61;1810704;78;21618;-62
2021/05/09 05:44:08;;;;;;;3.45;2.30;;;;;;;10.02;100.00;99732.83;1810761;78;20993;-61
2021/05/09 05:46:40;;;;;;;4.08;2.22;;;;;;;10.18;100.00;99735.10;1778972;79;21207;-61
2021/05/09 05:49:10;;;;;;;2.87;2.10;;;;;;;10.31;100.00;99736.95;1778725;80;21005;-62
2021/05/09 05:51:41;;;;;;;3.12;2.22;;;;;;;10.43;100.00;99728.23;1778791;80;20977;-62
2021/05/09 05:54:11;;;;;;;2.47;2.10;;;;;;;10.50;100.00;99724.75;1778836;80;20990;-62
2021/05/09 05:56:41;;;;;;;2.08;1.70;;;;;;;10.59;100.00;99730.05;1778781;80;21523;-62
2021/05/09 05:59:10;;;;;;;3.90;2.15;;;;;;;10.71;100.00;99731.84;1778820;80;21197;-62
2021/05/09 06:01:41;;;;;;;3.83;2.17;;;;;;;10.77;100.00;99733.61;1778714;80;21543;-62
2021/05/09 06:04:12;;;;;;;2.55;2.02;;;;;;;10.79;100.00;99733.17;1778802;80;20990;-62
2021/05/09 06:06:42;;;;;;;2.45;2.20;;;;;;;10.86;100.00;99741.11;1778759;80;20978;-63
2021/05/09 06:09:15;;;;;;;;;;;;;;;10.96;100.00;99746.00;1781358;80;20950;-62
2021/05/09 06:11:46;;;;;;;2.37;1.90;;;;;;;11.03;100.00;99746.01;1778906;80;22075;-62
2021/05/09 06:14:20;;;;;;;2.20;2.00;;;;;;;11.11;100.00;99746.02;1778661;80;21025;-62
2021/05/09 06:16:52;;;;;;;1.95;1.75;;;;;;;11.22;100.00;99744.70;1778913;80;21064;-62
2021/05/09 06:19:23;;;;;;;2.77;1.77;;;;;;;11.30;100.00;99747.79;1778759;80;20938;-62
2021/05/09 06:21:54;;;;;;;1.92;1.62;;;;;;;11.42;100.00;99750.91;1778833;80;20922;-63
2021/05/09 06:24:25;;;;;;;2.72;1.82;;;;;;;11.52;100.00;99757.06;1778953;80;21190;-62
2021/05/09 06:26:55;;;;;;;2.02;1.60;;;;;;;11.62;100.00;99761.02;1778775;80;20954;-61
2021/05/09 06:29:25;;;;;;;2.27;1.90;;;;;;;11.75;100.00;99756.61;1778940;80;20926;-62
2021/05/09 06:31:55;;;;;;;3.80;1.87;;;;;;;11.88;100.00;99765.02;1778858;80;21481;-62
2021/05/09 06:34:27;;;;;;;2.22;1.62;;;;;;;12.00;100.00;99774.69;1779130;80;20934;-62
2021/05/09 06:36:58;;;;;;;2.10;1.60;;;;;;;12.12;100.00;99767.17;1778881;80;21236;-62
2021/05/09 06:39:29;;;;;;;2.12;1.40;;;;;;;12.21;100.00;99767.14;1778806;80;20961;-62
2021/05/09 06:42:00;;;;;;;1.77;1.47;;;;;;;12.29;100.00;99774.17;1778785;80;20954;-61
2021/05/09 06:44:34;;;;;;;3.25;1.45;;;;;;;12.37;100.00;99762.72;1778706;80;21041;-63
2021/05/09 06:47:05;;;;;;;1.60;1.40;;;;;;;12.44;100.00;99771.95;1778913;80;20942;-61
2021/05/09 06:49:36;;;;;;;1.77;1.30;;;;;;;12.53;98.81;99764.41;1778875;80;22118;-63
2021/05/09 06:52:06;;;;;;;1.22;1.12;;;;;;;12.65;98.49;99766.13;1778792;80;21056;-63
2021/05/09 06:54:36;;;;;;;1.90;1.40;;;;;;;12.76;97.53;99769.16;1778840;80;21457;-62
2021/05/09 06:57:06;;;;;;;1.80;1.50;;;;;;;12.89;97.10;99775.30;1778691;80;20926;-62
2021/05/09 06:59:35;;;;;;;2.75;1.42;;;;;;;13.01;94.91;99774.34;1778796;80;21045;-63
2021/05/09 07:02:05;;;;;;;1.98;1.27;;;;;;;13.09;93.53;99769.43;1778778;80;21348;-61
2021/05/09 07:04:36;;;;;;;1.50;1.30;;;;;;;13.19;92.05;99767.63;1778835;80;21484;-61
2021/05/09 07:07:05;;;;;;;2.25;1.52;;;;;;;13.21;90.06;99765.85;1778764;80;20934;-62
2021/05/09 07:09:34;;;;;;;2.77;1.50;;;;;;;13.27;90.12;99766.28;1778721;80;20926;-63
2021/05/09 07:12:08;;;;;;;1.82;1.40;;;;;;;13.32;89.65;99768.45;1778741;80;21631;-62
2021/05/09 07:14:38;;;;;;;1.98;1.50;;;;;;;13.35;88.20;99764.45;1778736;80;21194;-63
2021/05/09 07:17:07;;;;;;;1.42;1.30;;;;;;;13.37;86.91;99769.30;1778759;80;21577;-62
2021/05/09 07:19:37;;;;;;;1.67;1.55;;;;;;;13.40;86.71;99766.18;1778885;80;20933;-63
2021/05/09 07:22:13;;;;;;;2.20;1.50;;;;;;;13.50;88.34;99759.91;1778860;80;21064;-64
2021/05/09 07:24:39;;;;;;;3.17;1.40;;;;;;;13.64;87.44;99765.54;1778814;80;21016;-62
2021/05/09 07:27:09;;;;;;;1.30;1.20;;;;;;;13.75;84.81;99769.01;1778761;80;21359;-62
2021/05/09 07:29:39;;;;;;;2.85;1.40;;;;;;;13.86;83.02;99762.71;1778829;80;21140;-62
2021/05/09 07:32:10;;;;;;;3.40;1.30;;;;;;;13.99;83.03;99760.81;1778808;80;21149;-64
2021/05/09 07:34:40;;;;;;;1.47;1.30;;;;;;;14.11;81.49;99768.64;1778656;80;20993;-62
2021/05/09 07:37:10;;;;;;;1.67;1.30;;;;;;;14.21;79.94;99764.59;1781143;79;20934;-61
2021/05/09 07:39:40;;;;;;;1.50;1.20;;;;;;;14.31;78.10;99767.13;1781571;80;21178;-62
2021/05/09 07:42:10;;;;;;;3.33;1.47;;;;;;;14.38;75.68;99763.50;1781413;80;21131;-62
2021/05/09 07:44:40;;;;;;;2.47;1.30;;;;;;;14.46;74.96;99757.69;1781483;80;20977;-62
2021/05/09 07:47:11;;;;;;;2.02;1.50;;;;;;;14.51;72.83;99761.61;1781471;80;21127;-62
2021/05/09 07:49:41;;;;;;;1.25;1.10;;;;;;;14.57;70.72;99755.34;1781552;80;21116;-62
2021/05/09 07:52:11;;;;;;;1.35;1.25;;;;;;;14.65;70.77;99757.45;1781540;80;21189;-62
2021/05/09 07:54:41;;;;;;;1.42;1.20;;;;;;;14.77;71.40;99754.67;1781621;79;21108;-62
2021/05/09 07:57:10;;;;;;;2.55;1.50;;;;;;;14.86;72.42;99754.54;1781687;80;20985;-62
2021/05/09 07:59:41;;;;;;;2.15;1.25;;;;;;;14.96;70.69;99751.30;1781740;80;21000;-62
2021/05/09 08:02:14;;;;;;;3.30;1.50;;;;;;;15.01;69.35;99752.98;1781873;79;21077;-63
2021/05/09 08:04:44;;;;;;;1.50;1.32;;;;;;;15.06;68.82;99760.89;1781668;80;21406;-63
2021/05/09 08:07:16;;;;;;;2.90;1.37;;;;;;;15.07;66.95;99756.01;1781823;80;20906;-63
2021/05/09 08:09:46;;;;;;;2.37;1.47;;;;;;;15.08;65.85;99755.98;1781736;80;21055;-63
2021/05/09 08:12:16;;;;;;;1.47;1.20;;;;;;;15.18;66.32;99751.45;1781617;79;20942;-63
2021/05/09 08:14:46;;;;;;;3.65;1.25;;;;;;;15.30;66.08;99761.01;1781784;79;21452;-63
2021/05/09 08:17:16;;;;;;;2.92;1.40;;;;;;;15.36;65.08;99760.46;1781660;79;21364;-62
2021/05/09 08:19:47;;;;;;;3.30;1.30;;;;;;;15.39;62.25;99763.52;1781746;80;20914;-62
2021/05/09 08:22:17;;;;;;;3.47;1.17;;;;;;;15.41;61.68;99769.69;1781821;79;20941;-62
2021/05/09 08:24:48;;;;;;;2.98;1.62;;;;;;;15.51;60.59;99763.77;1781761;79;21059;-63
2021/05/09 08:27:18;;;;;;;2.02;1.40;;;;;;;15.59;59.38;99761.89;1781688;80;21599;-63
2021/05/09 08:29:49;;;;;;;3.22;1.80;;;;;;;15.66;59.83;99762.25;1781730;80;22229;-62
2021/05/09 08:32:19;;;;;;;2.00;1.17;;;;;;;15.66;57.66;99763.13;1781695;79;21013;-62
2021/05/09 08:34:50;;;;;;;5.25;2.87;;;;;;;15.61;56.63;99763.66;1781678;79;21580;-63
2021/05/09 08:37:20;;;;;;;2.85;1.40;;;;;;;15.63;58.06;99757.86;1772070;80;21540;-63
2021/05/09 08:39:49;;;;;;;2.02;1.52;;;;;;;15.61;56.92;99762.78;1770652;80;20986;-63
2021/05/09 08:42:20;;;;;;;3.17;1.40;;;;;;;15.55;55.93;99770.34;1770765;80;22114;-62
2021/05/09 08:44:53;;;;;;;1.63;1.43;;;;;;;15.48;55.61;99763.38;1771057;80;21563;-63
2021/05/09 08:47:22;;;;;;;2.10;1.40;;;;;;;15.53;55.92;99761.52;1741008;81;21752;-63
2021/05/09 08:49:53;;;;;;;1.70;1.12;;;;;;;15.67;55.55;99762.23;1770855;80;20930;-63
2021/05/09 08:52:23;;;;;;;2.33;1.15;;;;;;;15.83;55.80;99757.97;1770800;80;21445;-63
2021/05/09 08:54:54;;;;;;;2.08;1.30;;;;;;;15.88;54.58;99754.32;1770769;80;21185;-63
2021/05/09 08:57:24;;;;;;;2.33;1.45;;;;;;;15.91;54.15;99754.72;1770673;80;21048;-63
2021/05/09 08:59:53;;;;;;;2.30;1.50;;;;;;;15.99;53.86;99752.80;1770863;80;21064;-62
2021/05/09 09:02:23;;;;;;;3.55;1.40;;;;;;;16.11;53.22;99743.28;1770790;80;21508;-62
2021/05/09 09:04:55;;;;;;;2.50;1.37;;;;;;;16.25;52.16;99750.99;1770767;80;21477;-63
2021/05/09 09:07:25;;;;;;;3.65;1.50;;;;;;;16.38;51.72;99745.39;1770732;80;21183;-62
2021/05/09 09:09:57;;;;;;;1.87;1.30;;;;;;;16.49;50.63;99746.95;1741999;81;21077;-64
2021/05/09 09:12:27;;;;;;;2.42;1.27;;;;;;;16.62;50.84;99751.16;1770798;80;20933;-63
2021/05/09 09:15:00;;;;;;;2.67;1.12;;;;;;;16.68;49.65;99739.95;1691173;81;21176;-62
2021/05/09 09:17:30;;;;;;;2.35;1.27;;;;;;;16.77;49.13;99737.53;1770928;80;21540;-63
2021/05/09 09:20:14;;;;;;;2.10;1.20;;;;;;;16.88;49.35;99745.29;1771191;80;21267;-63
2021/05/09 09:23:03;;;;;;;1.37;1.12;;;;;;;17.04;48.61;99742.73;1770723;80;21085;-62
2021/05/09 09:25:36;;;;;;;2.42;1.20;;;;;;;17.19;47.65;99737.04;1770784;80;20946;-64
2021/05/09 09:28:06;;;;;;;2.60;1.32;;;;;;;17.36;47.03;99738.42;1718254;81;21718;-63
2021/05/09 09:30:54;;;;;;;2.27;1.17;;;;;;;17.51;46.63;99738.08;1770883;80;21111;-64
2021/05/09 09:33:25;;;;;;;2.77;1.40;;;;;;;17.61;46.26;99727.14;1770699;80;21189;-63
2021/05/09 09:35:57;;;;;;;1.90;1.07;;;;;;;17.73;46.01;99733.11;1770599;80;20934;-66
2021/05/09 09:38:31;;;;;;;2.25;1.35;;;;;;;17.80;45.79;99728.03;1770806;80;20934;-65
2021/05/09 09:41:17;;;;;;;3.05;1.20;;;;;;;17.96;45.61;99731.16;1770803;80;21116;-65
2021/05/09 09:44:08;;;;;;;1.50;1.07;;;;;;;18.07;44.42;99723.31;1770748;80;20919;-65
2021/05/09 09:49:34;;;;;;;1.65;1.00;;;;;;;18.38;43.07;99726.45;1842233;77;22721;-66
2021/05/09 09:52:09;;;;;;;2.77;1.25;;;;;;;18.47;42.83;99727.09;1744231;82;21054;-67
2021/05/09 09:54:46;;;;;;;2.05;1.00;;;;;;;18.58;41.52;99721.89;1781780;80;21563;-66
2021/05/09 09:57:31;;;;;;;1.30;1.00;;;;;;;18.66;41.48;99725.25;1750450;81;20984;-67
2021/05/09 10:00:10;;;;;;;4.72;1.00;;;;;;;18.71;40.88;99729.99;1781423;80;21006;-66
2021/05/09 10:02:42;;;;;;;1.90;1.47;;;;;;;18.62;39.78;99725.80;1750621;81;21946;-67
2021/05/09 10:05:15;;;;;;;3.00;2.10;;;;;;;18.55;40.25;99727.74;1781434;80;20998;-67
2021/05/09 10:07:47;;;;;;;2.45;1.27;;;;;;;18.58;40.34;99728.11;1750481;82;21200;-67
2021/05/09 10:10:18;;;;;;;1.32;1.00;;;;;;;18.65;40.11;99729.72;1781473;80;20958;-65
2021/05/09 10:12:54;;;;;;;2.75;1.17;;;;;;;18.76;39.55;99728.06;1720328;81;20955;-66
2021/05/09 10:15:23;;;;;;;2.20;0.93;;;;;;;18.84;38.32;99725.56;1781411;80;20927;-66
2021/05/09 10:17:53;;;;;;;1.85;1.00;;;;;;;18.79;37.80;99728.84;1750461;81;20932;-66
2021/05/09 10:20:23;;;;;;;4.25;0.95;;;;;;;18.81;38.51;99722.11;1781650;80;21253;-66
2021/05/09 10:23:06;;;;;;;2.67;1.07;;;;;;;18.86;38.35;99725.06;1750581;81;20967;-66
2021/05/09 10:25:54;;;;;;;1.82;0.93;;;;;;;18.98;38.24;99721.63;1781772;80;20931;-66
2021/05/09 10:28:40;;;;;;;3.80;1.10;;;;;;;19.14;38.49;99725.56;1750758;82;21502;-65
2021/05/09 10:31:10;;;;;;;1.72;0.80;;;;;;;19.16;37.57;99732.61;1781678;80;20978;-65
2021/05/09 10:33:42;;;;;;;3.58;1.10;;;;;;;19.07;37.23;99725.34;1691553;81;21430;-66
2021/05/09 10:36:24;;;;;;;1.82;0.90;;;;;;;19.06;37.14;99728.94;1781436;80;20975;-65
2021/05/09 10:39:15;;;;;;;1.42;0.90;;;;;;;19.08;36.97;99724.42;1741065;82;21494;-66
2021/05/09 10:42:04;;;;;;;2.52;0.90;;;;;;;19.01;35.76;99719.73;1781496;80;21603;-66
2021/05/09 10:44:46;;;;;;;2.15;0.98;;;;;;;18.93;35.56;99726.23;1750974;82;21459;-66
2021/05/09 10:47:31;;;;;;;2.58;1.00;;;;;;;18.82;35.40;99724.73;1781814;80;21432;-66
2021/05/09 10:50:27;;;;;;;2.35;0.80;;;;;;;18.84;35.21;99725.56;1749978;81;21095;-67
2021/05/09 10:52:50;;;;;;;4.28;0.82;;;;;;;18.94;36.00;99726.66;1777040;80;21013;-66
2021/05/09 10:55:40;;;;;;;2.62;0.98;;;;;;;19.09;36.39;99722.16;1781572;80;20943;-66
2021/05/09 10:58:17;;;;;;;1.27;0.70;;;;;;;19.24;36.83;99726.14;1750735;81;20972;-66
2021/05/09 11:01:01;;;;;;;0.78;0.70;;;;;;;19.46;37.03;99730.77;1781084;80;21584;-67
2021/05/09 11:03:43;;;;;;;1.72;0.75;;;;;;;19.67;36.42;99722.52;1750028;81;21142;-66
2021/05/09 11:06:29;;;;;;;4.55;1.35;;;;;;;19.77;35.08;99727.09;1780925;80;20923;-66
2021/05/09 11:09:14;;;;;;;2.02;0.90;;;;;;;19.51;33.95;99722.59;1721072;81;21019;-66
2021/05/09 11:11:50;;;;;;;7.60;0.93;;;;;;;19.30;33.77;99712.57;1780904;80;20883;-66
2021/05/09 11:14:21;;;;;;;1.82;0.75;;;;;;;19.17;34.05;99716.98;1750097;81;21411;-66
2021/05/09 11:17:06;;;;;;;4.50;1.17;;;;;;;19.19;34.12;99712.91;1780939;80;20994;-67
2021/05/09 11:19:43;;;;;;;1.25;0.70;;;;;;;19.30;33.34;99721.93;1749969;81;21038;-66
2021/05/09 11:22:13;;;;;;;2.80;0.80;;;;;;;19.41;33.13;99720.69;1780951;80;20986;-66
2021/05/09 11:24:44;;;;;;;1.35;0.88;;;;;;;19.58;32.89;99710.79;1749931;82;21066;-66
2021/05/09 11:27:16;;;;;;;3.92;1.05;;;;;;;19.74;33.43;99712.01;1781036;80;22124;-66
2021/05/09 11:29:50;;;;;;;1.65;0.90;;;;;;;19.86;33.08;99705.35;1750360;81;20947;-66
2021/05/09 11:32:21;;;;;;;2.30;0.93;;;;;;;19.96;32.96;99709.48;1781171;80;21026;-66
2021/05/09 11:34:58;;;;;;;3.52;0.90;;;;;;;20.12;33.54;99703.98;1750506;81;21475;-66
2021/05/09 11:37:34;;;;;;;3.08;1.50;;;;;;;20.23;32.55;99700.05;1781466;80;21441;-68
2021/05/09 11:40:08;;;;;;;1.00;0.80;;;;;;;20.26;32.35;99699.93;1750311;81;21199;-67
2021/05/09 11:42:38;;;;;;;4.87;1.65;;;;;;;20.25;32.24;99691.48;1780879;80;20954;-66
2021/05/09 11:45:08;;;;;;;2.95;0.90;;;;;;;20.17;32.45;99690.43;1749994;82;21047;-67
2021/05/09 11:47:39;;;;;;;1.30;0.75;;;;;;;20.16;32.74;99691.36;1780973;80;21303;-67
2021/05/09 11:50:11;;;;;;;2.50;1.30;;;;;;;20.22;33.16;99687.58;1758253;81;20948;-66
2021/05/09 11:52:42;;;;;;;2.55;0.80;;;;;;;20.22;32.90;99680.42;1789597;80;21149;-67
2021/05/09 11:55:18;;;;;;;1.92;1.10;;;;;;;20.20;33.21;99684.09;1758306;81;21604;-66
2021/05/09 11:57:45;;;;;;;3.52;1.55;;;;;;;20.27;33.50;99677.56;1789486;80;21048;-67
2021/05/09 12:00:17;;;;;;;1.40;0.78;;;;;;;20.36;33.28;99679.47;1758420;81;20944;-67